Maran Castor — SXLH — position and weather

sailwx.info

Track history (hours):
 
Tides and Currents Weather Stations Pressure Air Temp Water Temp Dewpoint Dewpoint Depression Visibility Wind Speed Wind Dir Waves Ship Positions

Maran Castor

Last reported at 2017-Jun-04 10:42 UTC. Time now 2017-Jun-24 05:19 UTC.
Position N 02°05' E 102°07'.
Warning: this ship's position is 19 days out of date.

Length 332 m; draft 11.5 m.

Type: Tanker. MMSI: 239808000.

Date/timePositionNaut miles runAvg speedWind from/ knotsBaromVisibWave heightAir tempDewpointWater temp
2017-Jun-04 10:42N 02°05' E 102°07'411.2
2017-Jun-04 10:22N 02°02' E 102°10'411.1
2017-Jun-04 10:01N 01°60' E 102°13'610.8
2017-Jun-04 09:27N 01°56' E 102°18'511.0
2017-Jun-04 09:00N 01°54' E 102°23'610.9
2017-Jun-04 08:28N 01°52' E 102°28'511.3
2017-Jun-04 08:00N 01°49' E 102°32'611.3
2017-Jun-04 07:30N 01°47' E 102°38'611.6
2017-Jun-04 07:00N 01°45' E 102°43'711.8
2017-Jun-04 06:24N 01°41' E 102°49'4 9.9
2017-Jun-04 06:00N 01°39' E 102°52'3410.2
2017-Jun-04 02:43N 01°19' E 103°19'312.0
2017-Jun-04 02:29N 01°17' E 103°21'612.0
2017-Jun-04 01:59N 01°14' E 103°27'611.9
2017-Jun-04 01:30N 01°13' E 103°32'510.2
2017-Jun-04 01:00N 01°12' E 103°37'510.2
2017-Jun-04 00:30N 01°10' E 103°42'4 7.8
2017-Jun-04 00:00N 01°09' E 103°46'5 9.8
2017-Jun-03 23:30N 01°11' E 103°50'4 8.8
2017-Jun-03 23:00N 01°14' E 103°54'1 1.4
2017-Jun-03 22:25N 01°15' E 103°54'0 0.0
2017-Jun-03 21:58N 01°15' E 103°54'0 0.1
2017-Jun-03 21:28N 01°15' E 103°54'0 0.1
2017-Jun-03 20:55N 01°15' E 103°54'0 0.0
2017-Jun-03 20:28N 01°15' E 103°54'0 0.0
2017-Jun-03 19:58N 01°15' E 103°54'0 0.1
2017-Jun-03 19:25N 01°15' E 103°54'0 0.0
2017-Jun-03 18:55N 01°15' E 103°54'0 0.0
2017-Jun-03 18:28N 01°15' E 103°54'0 0.0
2017-Jun-03 17:55N 01°15' E 103°54'0 0.0
2017-Jun-03 17:25N 01°15' E 103°54'0 0.0
2017-Jun-03 16:58N 01°15' E 103°54'0 0.0
2017-Jun-03 16:25N 01°15' E 103°54'0 0.0
2017-Jun-03 15:58N 01°15' E 103°54'0 0.0
2017-Jun-03 15:25N 01°15' E 103°54'0 0.1
2017-Jun-03 14:58N 01°15' E 103°54'0 0.1
2017-Jun-03 13:58N 01°15' E 103°54'0 0.0
2017-Jun-03 13:28N 01°15' E 103°54'0 0.0
2017-Jun-03 12:55N 01°15' E 103°54'0 0.0
2017-Jun-03 12:28N 01°15' E 103°54'0 0.1
2017-Jun-03 11:58N 01°15' E 103°54'0 0.1
2017-Jun-03 11:25N 01°15' E 103°54'0 0.1
2017-Jun-03 10:58N 01°15' E 103°54'0 0.0
2017-Jun-03 10:28N 01°15' E 103°54'0 0.0
2017-Jun-03 09:49N 01°15' E 103°54'0 0.0
2017-Jun-03 09:28N 01°15' E 103°54'0 0.1
2017-Jun-03 08:58N 01°15' E 103°54'0 0.1
2017-Jun-03 08:28N 01°15' E 103°54'0 0.1
2017-Jun-03 07:55N 01°15' E 103°54'0 0.0
2017-Jun-03 07:25N 01°15' E 103°54'0 0.0
2017-Jun-03 06:58N 01°15' E 103°54'0 0.0
2017-Jun-03 06:25N 01°15' E 103°54'0 0.0
2017-Jun-03 05:58N 01°15' E 103°54'0 0.1
2017-Jun-03 05:28N 01°15' E 103°54'0 0.0
2017-Jun-03 04:58N 01°15' E 103°54'0 0.0
2017-Jun-03 04:28N 01°15' E 103°54'0 0.0
2017-Jun-03 03:58N 01°15' E 103°54'0 0.0
2017-Jun-03 03:28N 01°15' E 103°54'0 0.0
2017-Jun-03 02:55N 01°15' E 103°54'0 0.0
2017-Jun-03 02:28N 01°15' E 103°54'0 0.0
2017-Jun-03 01:58N 01°15' E 103°54'0 0.0
2017-Jun-03 01:28N 01°15' E 103°54'0 0.0
2017-Jun-03 00:55N 01°15' E 103°54'0 0.1
2017-Jun-03 00:28N 01°15' E 103°54'0 0.1
2017-Jun-02 23:55N 01°15' E 103°54'0 0.1
2017-Jun-02 23:25N 01°15' E 103°54'1 1.5
2017-Jun-02 23:00N 01°14' E 103°55'3 5.9
2017-Jun-02 22:30N 01°16' E 103°57'3 5.1
2017-Jun-02 22:00N 01°16' E 103°60'3 5.2
2017-Jun-02 21:30N 01°17' E 104°02'2 4.2
2017-Jun-02 21:00N 01°17' E 104°05'4 6.8
2017-Jun-02 20:29N 01°17' E 104°08'4 6.9
2017-Jun-02 19:56N 01°18' E 104°12'3 6.8
2017-Jun-02 19:26N 01°18' E 104°15'5 7.4
2017-Jun-02 18:44N 01°20' E 104°20'3 8.2
2017-Jun-02 18:24N 01°21' E 104°22'  
2017-May-25 16:04N 01°15' E 104°06'1 6.4
2017-May-25 15:57N 01°15' E 104°05'3 5.6
2017-May-25 15:30N 01°15' E 104°03'3 5.0
2017-May-25 14:58N 01°14' E 103°60'4 8.0
2017-May-25 14:30N 01°14' E 103°56'9 9.5
2017-May-25 13:30N 01°10' E 103°48'4 8.4
2017-May-25 13:00N 01°07' E 103°45'4 8.8
2017-May-25 12:30N 01°04' E 103°41'4 8.2
2017-May-25 12:00N 01°04' E 103°37'4 7.9
2017-May-25 11:30N 01°06' E 103°34'4 8.5
2017-May-25 11:00N 01°08' E 103°30'  
Track history (hours):
 
Tides and Currents Weather Stations Pressure Air Temp Water Temp Dewpoint Dewpoint Depression Visibility Wind Speed Wind Dir Waves Ship Positions

Maran Castor

Last reported at 2017-Jun-04 10:42 UTC. Time now 2017-Jun-24 05:19 UTC.
Position N 02°05' E 102°07'.
Warning: this ship's position is 19 days out of date.

Length 332 m; draft 11.5 m.

Type: Tanker. MMSI: 239808000.

Date/timePositionNaut miles runAvg speedWind from/ knotsBaromVisibWave heightAir tempDewpointWater temp
2017-Jun-04 10:42N 02°05' E 102°07'411.2
2017-Jun-04 10:22N 02°02' E 102°10'411.1
2017-Jun-04 10:01N 01°60' E 102°13'610.8
2017-Jun-04 09:27N 01°56' E 102°18'511.0
2017-Jun-04 09:00N 01°54' E 102°23'610.9
2017-Jun-04 08:28N 01°52' E 102°28'511.3
2017-Jun-04 08:00N 01°49' E 102°32'611.3
2017-Jun-04 07:30N 01°47' E 102°38'611.6
2017-Jun-04 07:00N 01°45' E 102°43'711.8
2017-Jun-04 06:24N 01°41' E 102°49'4 9.9
2017-Jun-04 06:00N 01°39' E 102°52'3410.2
2017-Jun-04 02:43N 01°19' E 103°19'312.0
2017-Jun-04 02:29N 01°17' E 103°21'612.0
2017-Jun-04 01:59N 01°14' E 103°27'611.9
2017-Jun-04 01:30N 01°13' E 103°32'510.2
2017-Jun-04 01:00N 01°12' E 103°37'510.2
2017-Jun-04 00:30N 01°10' E 103°42'4 7.8
2017-Jun-04 00:00N 01°09' E 103°46'5 9.8
2017-Jun-03 23:30N 01°11' E 103°50'4 8.8
2017-Jun-03 23:00N 01°14' E 103°54'1 1.4
2017-Jun-03 22:25N 01°15' E 103°54'0 0.0
2017-Jun-03 21:58N 01°15' E 103°54'0 0.1
2017-Jun-03 21:28N 01°15' E 103°54'0 0.1
2017-Jun-03 20:55N 01°15' E 103°54'0 0.0
2017-Jun-03 20:28N 01°15' E 103°54'0 0.0
2017-Jun-03 19:58N 01°15' E 103°54'0 0.1
2017-Jun-03 19:25N 01°15' E 103°54'0 0.0
2017-Jun-03 18:55N 01°15' E 103°54'0 0.0
2017-Jun-03 18:28N 01°15' E 103°54'0 0.0
2017-Jun-03 17:55N 01°15' E 103°54'0 0.0
2017-Jun-03 17:25N 01°15' E 103°54'0 0.0
2017-Jun-03 16:58N 01°15' E 103°54'0 0.0
2017-Jun-03 16:25N 01°15' E 103°54'0 0.0
2017-Jun-03 15:58N 01°15' E 103°54'0 0.0
2017-Jun-03 15:25N 01°15' E 103°54'0 0.1
2017-Jun-03 14:58N 01°15' E 103°54'0 0.1
2017-Jun-03 13:58N 01°15' E 103°54'0 0.0
2017-Jun-03 13:28N 01°15' E 103°54'0 0.0
2017-Jun-03 12:55N 01°15' E 103°54'0 0.0
2017-Jun-03 12:28N 01°15' E 103°54'0 0.1
2017-Jun-03 11:58N 01°15' E 103°54'0 0.1
2017-Jun-03 11:25N 01°15' E 103°54'0 0.1
2017-Jun-03 10:58N 01°15' E 103°54'0 0.0
2017-Jun-03 10:28N 01°15' E 103°54'0 0.0
2017-Jun-03 09:49N 01°15' E 103°54'0 0.0
2017-Jun-03 09:28N 01°15' E 103°54'0 0.1
2017-Jun-03 08:58N 01°15' E 103°54'0 0.1
2017-Jun-03 08:28N 01°15' E 103°54'0 0.1
2017-Jun-03 07:55N 01°15' E 103°54'0 0.0
2017-Jun-03 07:25N 01°15' E 103°54'0 0.0
2017-Jun-03 06:58N 01°15' E 103°54'0 0.0
2017-Jun-03 06:25N 01°15' E 103°54'0 0.0
2017-Jun-03 05:58N 01°15' E 103°54'0 0.1
2017-Jun-03 05:28N 01°15' E 103°54'0 0.0
2017-Jun-03 04:58N 01°15' E 103°54'0 0.0
2017-Jun-03 04:28N 01°15' E 103°54'0 0.0
2017-Jun-03 03:58N 01°15' E 103°54'0 0.0
2017-Jun-03 03:28N 01°15' E 103°54'0 0.0
2017-Jun-03 02:55N 01°15' E 103°54'0 0.0
2017-Jun-03 02:28N 01°15' E 103°54'0 0.0
2017-Jun-03 01:58N 01°15' E 103°54'0 0.0
2017-Jun-03 01:28N 01°15' E 103°54'0 0.0
2017-Jun-03 00:55N 01°15' E 103°54'0 0.1
2017-Jun-03 00:28N 01°15' E 103°54'0 0.1
2017-Jun-02 23:55N 01°15' E 103°54'0 0.1
2017-Jun-02 23:25N 01°15' E 103°54'1 1.5
2017-Jun-02 23:00N 01°14' E 103°55'3 5.9
2017-Jun-02 22:30N 01°16' E 103°57'3 5.1
2017-Jun-02 22:00N 01°16' E 103°60'3 5.2
2017-Jun-02 21:30N 01°17' E 104°02'2 4.2
2017-Jun-02 21:00N 01°17' E 104°05'4 6.8
2017-Jun-02 20:29N 01°17' E 104°08'4 6.9
2017-Jun-02 19:56N 01°18' E 104°12'3 6.8
2017-Jun-02 19:26N 01°18' E 104°15'5 7.4
2017-Jun-02 18:44N 01°20' E 104°20'3 8.2
2017-Jun-02 18:24N 01°21' E 104°22'  
2017-May-25 16:04N 01°15' E 104°06'1 6.4
2017-May-25 15:57N 01°15' E 104°05'3 5.6
2017-May-25 15:30N 01°15' E 104°03'3 5.0
2017-May-25 14:58N 01°14' E 103°60'4 8.0
2017-May-25 14:30N 01°14' E 103°56'9 9.5
2017-May-25 13:30N 01°10' E 103°48'4 8.4
2017-May-25 13:00N 01°07' E 103°45'4 8.8
2017-May-25 12:30N 01°04' E 103°41'4 8.2
2017-May-25 12:00N 01°04' E 103°37'4 7.9
2017-May-25 11:30N 01°06' E 103°34'4 8.5
2017-May-25 11:00N 01°08' E 103°30'  

Dump ship's entire track history